createdAt,value
2023-01-28T00:00:39.862Z,586.89
2023-01-28T00:03:46.340Z,470.30
2023-01-28T00:06:53.961Z,307.29
2023-01-28T00:09:59.975Z,266.80
2023-01-28T00:13:06.674Z,298.69
2023-01-28T00:16:15.361Z,262.62
2023-01-28T00:19:22.044Z,300.30
2023-01-28T00:22:28.100Z,286.07
2023-01-28T00:25:35.042Z,301.44
2023-01-28T00:28:40.847Z,260.93
2023-01-28T00:31:50.074Z,232.94
2023-01-28T00:34:55.910Z,246.40
2023-01-28T00:38:03.686Z,259.21
2023-01-28T00:41:15.912Z,205.61
2023-01-28T00:44:22.671Z,211.73
2023-01-28T00:47:31.305Z,215.31
2023-01-28T00:50:39.977Z,209.19
2023-01-28T00:53:46.781Z,205.18
2023-01-28T00:56:53.718Z,199.50
2023-01-28T00:59:59.871Z,204.05
2023-01-28T01:03:10.726Z,209.66
2023-01-28T01:06:19.672Z,218.48
2023-01-28T01:09:26.575Z,198.95
2023-01-28T01:12:32.588Z,202.63
2023-01-28T01:15:41.138Z,196.54
2023-01-28T01:18:49.871Z,220.61
2023-01-28T01:21:56.507Z,211.35
2023-01-28T01:25:02.517Z,205.06
2023-01-28T01:28:11.900Z,198.14
2023-01-28T01:31:21.709Z,200.05
2023-01-28T01:34:30.979Z,200.18
2023-01-28T01:37:37.591Z,186.53
2023-01-28T01:40:44.240Z,186.25
2023-01-28T01:43:55.780Z,176.30
2023-01-28T01:47:03.023Z,180.48
2023-01-28T01:50:24.619Z,184.89
2023-01-28T01:53:33.957Z,183.68
2023-01-28T01:56:47.582Z,175.99
2023-01-28T01:59:54.480Z,170.25
2023-01-28T02:03:00.838Z,173.67
2023-01-28T02:06:12.189Z,174.92
2023-01-28T02:09:32.547Z,171.94
2023-01-28T02:12:48.279Z,165.20
2023-01-28T02:15:58.992Z,150.81
2023-01-28T02:19:06.214Z,148.54
2023-01-28T02:23:00.839Z,159.82
2023-01-28T02:26:51.058Z,163.17
2023-01-28T02:30:15.101Z,151.61
2023-01-28T02:33:33.102Z,146.91
2023-01-28T02:36:53.199Z,143.91
2023-01-28T02:40:10.041Z,150.65
2023-01-28T02:43:21.494Z,151.17
2023-01-28T02:46:53.725Z,152.53
2023-01-28T02:50:11.912Z,149.87
2023-01-28T02:53:52.224Z,155.32
2023-01-28T02:57:18.117Z,147.30
2023-01-28T03:00:38.205Z,142.62
2023-01-28T03:04:02.535Z,141.91
2023-01-28T03:07:14.471Z,143.47
2023-01-28T03:10:28.492Z,141.13
2023-01-28T03:13:46.712Z,149.35
2023-01-28T03:17:13.435Z,148.78
2023-01-28T03:20:40.601Z,155.62
2023-01-28T03:24:16.035Z,157.06
2023-01-28T03:27:47.722Z,160.13
2023-01-28T03:31:20.952Z,158.82
2023-01-28T03:34:43.946Z,154.93
2023-01-28T03:37:53.516Z,151.27
2023-01-28T03:41:06.027Z,154.57
2023-01-28T03:44:25.290Z,155.62
2023-01-28T03:47:34.074Z,158.51
2023-01-28T03:50:44.352Z,158.74
2023-01-28T03:53:52.927Z,158.17
2023-01-28T03:57:00.947Z,158.77
2023-01-28T04:00:10.575Z,163.12
2023-01-28T04:03:26.381Z,162.91
2023-01-28T04:06:42.735Z,159.85
2023-01-28T04:10:25.099Z,166.01
2023-01-28T04:13:38.139Z,166.87
2023-01-28T04:16:45.100Z,160.27
2023-01-28T04:19:51.661Z,157.61
2023-01-28T04:22:59.484Z,153.84
2023-01-28T04:26:09.175Z,151.93
2023-01-28T04:29:15.910Z,152.28
2023-01-28T04:32:21.911Z,153.46
2023-01-28T04:35:51.286Z,152.03
2023-01-28T04:39:10.959Z,147.05
2023-01-28T04:42:20.382Z,147.44
2023-01-28T04:45:46.610Z,147.84
2023-01-28T04:49:11.464Z,149.71
2023-01-28T04:52:35.998Z,140.27
2023-01-28T04:55:58.538Z,146.41
2023-01-28T04:59:12.105Z,142.92
2023-01-28T05:02:21.821Z,142.05
2023-01-28T05:05:35.918Z,148.19
2023-01-28T05:09:06.700Z,137.53
2023-01-28T05:12:12.675Z,134.80
2023-01-28T05:15:28.340Z,132.18
2023-01-28T05:18:34.581Z,133.97
2023-01-28T05:22:58.773Z,135.28
2023-01-28T05:26:14.661Z,131.65
2023-01-28T05:29:23.607Z,134.32
2023-01-28T05:32:37.227Z,140.29
2023-01-28T05:35:47.241Z,135.76
2023-01-28T05:38:55.283Z,140.12
2023-01-28T05:42:02.201Z,144.99
2023-01-28T05:45:35.085Z,154.69
2023-01-28T05:49:01.541Z,131.54
2023-01-28T05:52:37.138Z,147.73
2023-01-28T05:55:45.708Z,148.59
2023-01-28T05:58:57.071Z,150.56
2023-01-28T06:02:06.097Z,148.07
2023-01-28T06:05:14.993Z,143.78
2023-01-28T06:08:21.762Z,148.33
2023-01-28T06:11:27.773Z,148.67
2023-01-28T06:14:39.785Z,146.29
2023-01-28T06:17:56.432Z,137.56
2023-01-28T06:21:10.576Z,144.73
2023-01-28T06:24:16.643Z,140.21
2023-01-28T06:27:23.282Z,162.22
2023-01-28T06:30:29.402Z,165.44
2023-01-28T06:33:36.096Z,146.33
2023-01-28T06:36:44.670Z,195.36
2023-01-28T06:39:51.741Z,203.38
2023-01-28T06:42:57.601Z,191.30
2023-01-28T06:46:04.892Z,167.68
2023-01-28T06:49:14.756Z,179.38
2023-01-28T06:52:23.962Z,170.08
2023-01-28T06:55:29.815Z,181.40
2023-01-28T06:58:36.370Z,169.89
2023-01-28T07:01:42.302Z,165.01
2023-01-28T07:04:51.063Z,168.07
2023-01-28T07:08:02.376Z,168.87
2023-01-28T07:11:09.804Z,147.82
2023-01-28T07:14:15.657Z,143.60
2023-01-28T07:17:22.288Z,164.13
2023-01-28T07:20:28.064Z,177.64
2023-01-28T07:23:37.297Z,165.78
2023-01-28T07:26:43.144Z,166.55
2023-01-28T07:29:49.847Z,161.59
2023-01-28T07:33:00.518Z,159.72
2023-01-28T07:36:08.159Z,168.69
2023-01-28T07:39:16.578Z,164.29
2023-01-28T07:42:23.148Z,164.23
2023-01-28T07:45:32.127Z,173.13
2023-01-28T07:48:38.938Z,163.27
2023-01-28T07:51:46.651Z,158.59
2023-01-28T07:54:56.041Z,164.41
2023-01-28T07:58:04.686Z,164.32
2023-01-28T08:01:11.536Z,184.79
2023-01-28T08:04:17.648Z,164.34
2023-01-28T08:07:24.539Z,161.14
2023-01-28T08:10:34.977Z,156.01
2023-01-28T08:13:41.641Z,159.75
2023-01-28T08:16:48.376Z,160.72
2023-01-28T08:19:55.030Z,159.05
2023-01-28T08:23:10.562Z,163.80
2023-01-28T08:26:19.779Z,203.07
2023-01-28T08:29:35.811Z,186.51
2023-01-28T08:32:42.844Z,170.73
2023-01-28T08:35:49.503Z,181.14
2023-01-28T08:38:57.059Z,153.44
2023-01-28T08:42:05.364Z,148.26
2023-01-28T08:45:13.508Z,166.68
2023-01-28T08:48:22.562Z,156.02
2023-01-28T08:51:29.285Z,157.57
2023-01-28T08:54:36.727Z,154.20
2023-01-28T08:57:45.985Z,170.77
2023-01-28T09:00:52.955Z,153.57
2023-01-28T09:04:00.928Z,170.15
2023-01-28T09:07:06.788Z,158.31
2023-01-28T09:10:16.638Z,173.33
2023-01-28T09:13:25.698Z,157.99
2023-01-28T09:16:32.345Z,160.60
2023-01-28T09:19:38.739Z,161.40
2023-01-28T09:22:45.801Z,164.81
2023-01-28T09:25:51.545Z,161.82
2023-01-28T09:29:00.813Z,198.19
2023-01-28T09:32:07.236Z,215.17
2023-01-28T09:35:15.440Z,200.05
2023-01-28T09:38:21.246Z,206.08
2023-01-28T09:41:32.434Z,213.85
2023-01-28T09:45:04.674Z,168.13
2023-01-28T09:48:19.285Z,164.24
2023-01-28T09:51:38.924Z,161.49
2023-01-28T09:54:52.136Z,163.65
2023-01-28T09:57:58.310Z,157.58
2023-01-28T10:01:38.258Z,171.19
2023-01-28T10:05:02.779Z,180.39
2023-01-28T10:08:32.506Z,177.47
2023-01-28T10:12:03.587Z,164.41
2023-01-28T10:16:00.292Z,161.53
2023-01-28T10:19:21.118Z,150.05
2023-01-28T10:22:38.727Z,148.00
2023-01-28T10:25:49.645Z,153.23
2023-01-28T10:29:07.248Z,154.57
2023-01-28T10:32:26.444Z,149.44
2023-01-28T10:35:43.838Z,148.68
2023-01-28T10:38:51.569Z,154.41
2023-01-28T10:41:58.955Z,171.12
2023-01-28T10:45:11.962Z,189.37
2023-01-28T10:48:27.445Z,190.11
2023-01-28T10:51:43.153Z,190.81
2023-01-28T10:54:49.902Z,184.31
2023-01-28T10:57:57.505Z,154.44
2023-01-28T11:01:09.956Z,165.87
2023-01-28T11:04:25.399Z,166.34
2023-01-28T11:07:35.113Z,170.47
2023-01-28T11:10:41.846Z,150.50
2023-01-28T11:13:55.819Z,156.62
2023-01-28T11:17:02.136Z,151.98
2023-01-28T11:20:22.755Z,137.03
2023-01-28T11:23:36.444Z,155.76
2023-01-28T11:26:51.155Z,171.55
2023-01-28T11:30:03.543Z,157.76
2023-01-28T11:33:22.205Z,152.29
2023-01-28T11:36:31.025Z,156.94
2023-01-28T11:39:40.357Z,165.51
2023-01-28T11:42:46.438Z,168.26
2023-01-28T11:46:13.409Z,183.80
2023-01-28T11:49:39.213Z,194.66
2023-01-28T11:53:07.931Z,175.75
2023-01-28T11:56:46.984Z,254.13
2023-01-28T12:00:36.420Z,187.37
2023-01-28T12:04:03.046Z,191.43
2023-01-28T12:07:33.846Z,205.70
2023-01-28T12:10:59.660Z,191.41
2023-01-28T12:14:30.111Z,169.80
2023-01-28T12:17:59.966Z,179.50
2023-01-28T12:21:11.130Z,195.42
2023-01-28T12:24:44.676Z,205.70
2023-01-28T12:28:06.357Z,194.20
2023-01-28T12:31:53.309Z,180.12
2023-01-28T12:35:38.441Z,271.67
2023-01-28T12:39:03.796Z,215.46
2023-01-28T12:42:21.328Z,174.43
2023-01-28T12:45:37.636Z,185.86
2023-01-28T12:48:58.534Z,201.73
2023-01-28T12:52:18.078Z,199.62
2023-01-28T12:55:43.708Z,194.00
2023-01-28T12:59:00.354Z,211.74
2023-01-28T13:02:29.315Z,284.81
2023-01-28T13:05:49.234Z,275.11
2023-01-28T13:09:04.057Z,249.51
2023-01-28T13:12:13.960Z,289.90
2023-01-28T13:15:23.435Z,253.34
2023-01-28T13:18:46.081Z,219.41
2023-01-28T13:21:56.630Z,234.12
2023-01-28T13:25:23.638Z,245.74
2023-01-28T13:28:34.442Z,218.47
2023-01-28T13:31:44.559Z,323.22
2023-01-28T13:35:03.817Z,241.44
2023-01-28T13:38:22.573Z,301.01
2023-01-28T13:41:41.515Z,375.56
2023-01-28T13:44:47.365Z,257.55
2023-01-28T13:48:03.100Z,231.12
2023-01-28T13:51:25.677Z,237.51
2023-01-28T13:54:41.373Z,256.34
2023-01-28T13:58:38.854Z,252.72
2023-01-28T14:02:36.101Z,264.95
2023-01-28T14:06:27.464Z,276.19
2023-01-28T14:10:21.794Z,291.26
2023-01-28T14:14:02.229Z,366.20
2023-01-28T14:17:31.443Z,328.91
2023-01-28T14:20:45.174Z,290.52
2023-01-28T14:23:56.072Z,305.98
2023-01-28T14:27:20.977Z,407.55
2023-01-28T14:30:46.567Z,425.94
2023-01-28T14:33:52.851Z,354.10
2023-01-28T14:37:07.853Z,310.94
2023-01-28T14:40:19.464Z,272.13
2023-01-28T14:43:31.428Z,287.61
2023-01-28T14:46:54.745Z,299.37
2023-01-28T14:50:35.482Z,270.88
2023-01-28T14:54:17.016Z,242.72
2023-01-28T14:57:44.638Z,302.11
2023-01-28T15:01:03.120Z,259.95
2023-01-28T15:04:24.149Z,267.14
2023-01-28T15:07:31.019Z,243.25
2023-01-28T15:10:42.381Z,228.95
2023-01-28T15:13:53.986Z,282.23
2023-01-28T15:17:06.052Z,280.79
2023-01-28T15:20:21.246Z,253.30
2023-01-28T15:23:34.672Z,239.53
2023-01-28T15:26:41.053Z,244.32
2023-01-28T15:29:56.663Z,271.86
2023-01-28T15:33:09.090Z,269.56
2023-01-28T15:36:15.918Z,260.28
2023-01-28T15:39:25.977Z,275.92
2023-01-28T15:42:32.868Z,335.41
2023-01-28T15:45:41.183Z,302.21
2023-01-28T15:49:00.753Z,280.15
2023-01-28T15:52:07.347Z,312.47
2023-01-28T15:55:39.134Z,414.56
2023-01-28T15:58:46.487Z,660.07
2023-01-28T16:01:53.310Z,589.03
2023-01-28T16:05:05.603Z,507.14
2023-01-28T16:08:21.925Z,454.12
2023-01-28T16:11:33.350Z,521.33
2023-01-28T16:14:49.637Z,460.50
2023-01-28T16:17:56.597Z,409.86
2023-01-28T16:21:10.212Z,418.12
2023-01-28T16:24:28.687Z,427.53
2023-01-28T16:27:35.271Z,359.08
2023-01-28T16:30:43.446Z,362.91
2023-01-28T16:33:51.200Z,372.67
2023-01-28T16:37:01.949Z,348.33
2023-01-28T16:40:12.513Z,362.25
2023-01-28T16:43:20.202Z,453.14
2023-01-28T16:46:30.813Z,389.13
2023-01-28T16:49:36.739Z,533.56
2023-01-28T16:52:49.812Z,472.31
2023-01-28T16:55:55.903Z,390.91
2023-01-28T16:59:02.583Z,427.75
2023-01-28T17:02:08.958Z,442.29
2023-01-28T17:05:19.948Z,503.42
2023-01-28T17:08:29.349Z,476.75
2023-01-28T17:11:37.126Z,424.62
2023-01-28T17:14:42.923Z,431.59
2023-01-28T17:17:53.213Z,384.51
2023-01-28T17:21:05.618Z,398.60
2023-01-28T17:24:14.982Z,373.84
2023-01-28T17:27:20.835Z,369.27
2023-01-28T17:30:27.411Z,356.95
2023-01-28T17:33:33.210Z,341.48
2023-01-28T17:36:40.076Z,358.90
2023-01-28T17:39:48.551Z,354.54
2023-01-28T17:42:55.297Z,718.93
2023-01-28T17:46:01.527Z,432.56
2023-01-28T17:49:08.368Z,457.45
2023-01-28T17:52:14.286Z,893.16
2023-01-28T17:55:23.604Z,710.42
2023-01-28T17:58:29.687Z,1277.92
2023-01-28T18:01:38.584Z,646.92
2023-01-28T18:04:46.238Z,1175.73
2023-01-28T18:07:52.969Z,701.21
2023-01-28T18:11:02.821Z,483.68
2023-01-28T18:14:09.467Z,455.48
2023-01-28T18:17:15.619Z,461.13
2023-01-28T18:20:22.469Z,543.78
2023-01-28T18:23:28.619Z,672.26
2023-01-28T18:26:38.083Z,530.96
2023-01-28T18:29:44.028Z,477.82
2023-01-28T18:32:50.780Z,496.36
2023-01-28T18:35:56.710Z,587.25
2023-01-28T18:39:03.662Z,499.23
2023-01-28T18:42:12.080Z,547.47
2023-01-28T18:45:20.284Z,491.47
2023-01-28T18:48:26.921Z,470.03
2023-01-28T18:51:33.677Z,460.85
2023-01-28T18:54:42.273Z,477.64
2023-01-28T18:57:51.617Z,489.62
2023-01-28T19:00:57.412Z,482.80
2023-01-28T19:04:05.005Z,470.41
2023-01-28T19:07:12.002Z,461.39
2023-01-28T19:10:19.762Z,455.21
2023-01-28T19:13:28.807Z,498.60
2023-01-28T19:16:37.392Z,661.37
2023-01-28T19:19:43.351Z,580.98
2023-01-28T19:22:49.886Z,683.41
2023-01-28T19:25:55.985Z,1347.87
2023-01-28T19:29:05.547Z,1377.51
2023-01-28T19:32:11.574Z,720.93
2023-01-28T19:35:18.834Z,607.61
2023-01-28T19:38:25.270Z,896.20
2023-01-28T19:41:32.993Z,828.84
2023-01-28T19:44:41.464Z,1116.84
2023-01-28T19:47:48.379Z,805.63
2023-01-28T19:50:54.465Z,802.49
2023-01-28T19:54:03.405Z,785.27
2023-01-28T19:57:10.594Z,1119.12
2023-01-28T20:00:21.495Z,973.59
2023-01-28T20:03:28.645Z,749.57
2023-01-28T20:06:36.543Z,1078.83
2023-01-28T20:09:42.246Z,1065.08
2023-01-28T20:12:48.838Z,780.59
2023-01-28T20:15:58.685Z,993.41
2023-01-28T20:19:08.385Z,619.03
2023-01-28T20:22:14.313Z,539.40
2023-01-28T20:25:21.239Z,408.37
2023-01-28T20:28:27.912Z,351.71
2023-01-28T20:31:38.812Z,381.98
2023-01-28T20:34:46.250Z,596.67
2023-01-28T20:37:52.951Z,511.03
2023-01-28T20:40:59.038Z,660.08
2023-01-28T20:44:05.774Z,657.41
2023-01-28T20:47:14.439Z,433.56
2023-01-28T20:50:21.303Z,464.88
2023-01-28T20:53:27.162Z,440.61
2023-01-28T20:56:34.783Z,316.45
2023-01-28T20:59:40.550Z,368.48
2023-01-28T21:02:49.886Z,360.59
2023-01-28T21:05:56.034Z,398.86
2023-01-28T21:09:02.585Z,377.74
2023-01-28T21:12:11.007Z,420.78
2023-01-28T21:15:17.809Z,389.69
2023-01-28T21:18:27.900Z,372.49
2023-01-28T21:21:35.714Z,511.42
2023-01-28T21:24:41.698Z,365.82
2023-01-28T21:27:50.734Z,358.21
2023-01-28T21:30:56.764Z,419.98
2023-01-28T21:34:06.106Z,486.07
2023-01-28T21:37:12.271Z,610.13
2023-01-28T21:40:19.190Z,509.36
2023-01-28T21:43:25.339Z,377.47
2023-01-28T21:46:36.125Z,398.68
2023-01-28T21:49:45.152Z,392.12
2023-01-28T21:52:52.234Z,507.98
2023-01-28T21:55:58.020Z,568.12
2023-01-28T21:59:17.230Z,227.85
2023-01-28T22:02:24.079Z,254.53
2023-01-28T22:05:33.377Z,384.81
2023-01-28T22:08:39.676Z,395.99
2023-01-28T22:11:48.976Z,276.79
2023-01-28T22:14:54.933Z,238.11
2023-01-28T22:18:01.461Z,219.86
2023-01-28T22:21:13.881Z,199.93
2023-01-28T22:24:24.612Z,224.38
2023-01-28T22:27:30.810Z,237.54
2023-01-28T22:30:37.327Z,255.33
2023-01-28T22:33:44.864Z,217.45
2023-01-28T22:36:54.804Z,221.26
2023-01-28T22:40:00.568Z,189.68
2023-01-28T22:43:07.508Z,286.78
2023-01-28T22:46:13.910Z,252.83
2023-01-28T22:49:22.211Z,186.36
2023-01-28T22:52:30.537Z,125.05
2023-01-28T22:55:37.289Z,117.34
2023-01-28T22:58:43.310Z,122.93
2023-01-28T23:01:52.135Z,109.48
2023-01-28T23:04:58.065Z,199.23
2023-01-28T23:08:13.081Z,331.68
2023-01-28T23:11:25.647Z,272.02
2023-01-28T23:14:57.705Z,118.74
2023-01-28T23:18:15.823Z,134.34
2023-01-28T23:21:38.741Z,118.05
2023-01-28T23:24:47.121Z,115.82
2023-01-28T23:27:53.947Z,112.67
2023-01-28T23:31:00.119Z,127.43
2023-01-28T23:34:10.414Z,147.95
2023-01-28T23:37:17.820Z,188.22
2023-01-28T23:40:27.532Z,141.36
2023-01-28T23:43:33.392Z,120.57
2023-01-28T23:46:40.540Z,123.26
2023-01-28T23:49:46.521Z,117.24
2023-01-28T23:52:53.243Z,130.00
2023-01-28T23:56:01.632Z,135.22
2023-01-28T23:59:09.627Z,142.22
